sensor_id;sensor_type;location;lat;lon;timestamp;P1;durP1;ratioP1;P2;durP2;ratioP2
14611;SDS011;7392;52.078;11.650;2023-07-13T00:00:01;0.80;;;0.73;;
14611;SDS011;7392;52.078;11.650;2023-07-13T00:02:40;0.80;;;0.80;;
14611;SDS011;7392;52.078;11.650;2023-07-13T00:05:08;0.80;;;0.70;;
14611;SDS011;7392;52.078;11.650;2023-07-13T00:07:37;0.73;;;0.73;;
14611;SDS011;7392;52.078;11.650;2023-07-13T00:10:05;0.77;;;0.70;;
14611;SDS011;7392;52.078;11.650;2023-07-13T00:12:35;1.60;;;1.00;;
14611;SDS011;7392;52.078;11.650;2023-07-13T00:15:05;0.80;;;0.70;;
14611;SDS011;7392;52.078;11.650;2023-07-13T00:17:34;1.67;;;0.77;;
14611;SDS011;7392;52.078;11.650;2023-07-13T00:20:05;1.67;;;0.90;;
14611;SDS011;7392;52.078;11.650;2023-07-13T00:22:34;1.37;;;1.00;;
14611;SDS011;7392;52.078;11.650;2023-07-13T00:25:04;1.50;;;1.23;;
14611;SDS011;7392;52.078;11.650;2023-07-13T00:27:32;2.77;;;1.53;;
14611;SDS011;7392;52.078;11.650;2023-07-13T00:30:00;2.00;;;1.50;;
14611;SDS011;7392;52.078;11.650;2023-07-13T00:32:30;2.30;;;1.47;;
14611;SDS011;7392;52.078;11.650;2023-07-13T00:34:58;1.87;;;1.40;;
14611;SDS011;7392;52.078;11.650;2023-07-13T00:37:26;1.77;;;1.57;;
14611;SDS011;7392;52.078;11.650;2023-07-13T00:39:55;1.63;;;1.40;;
14611;SDS011;7392;52.078;11.650;2023-07-13T00:42:24;2.67;;;1.60;;
14611;SDS011;7392;52.078;11.650;2023-07-13T00:45:05;1.83;;;1.60;;
14611;SDS011;7392;52.078;11.650;2023-07-13T00:47:35;1.60;;;1.50;;
14611;SDS011;7392;52.078;11.650;2023-07-13T00:50:03;2.27;;;1.47;;
14611;SDS011;7392;52.078;11.650;2023-07-13T00:52:33;1.87;;;1.53;;
14611;SDS011;7392;52.078;11.650;2023-07-13T00:55:04;2.00;;;1.60;;
14611;SDS011;7392;52.078;11.650;2023-07-13T00:57:33;1.90;;;1.40;;
14611;SDS011;7392;52.078;11.650;2023-07-13T01:00:03;1.83;;;1.40;;
14611;SDS011;7392;52.078;11.650;2023-07-13T01:02:35;1.47;;;1.20;;
14611;SDS011;7392;52.078;11.650;2023-07-13T01:05:08;1.40;;;1.30;;
14611;SDS011;7392;52.078;11.650;2023-07-13T01:07:36;1.20;;;1.10;;
14611;SDS011;7392;52.078;11.650;2023-07-13T01:10:06;1.47;;;1.37;;
14611;SDS011;7392;52.078;11.650;2023-07-13T01:12:36;1.30;;;1.20;;
14611;SDS011;7392;52.078;11.650;2023-07-13T01:15:04;1.10;;;1.00;;
14611;SDS011;7392;52.078;11.650;2023-07-13T01:17:53;1.27;;;1.13;;
14611;SDS011;7392;52.078;11.650;2023-07-13T01:20:21;1.30;;;1.20;;
14611;SDS011;7392;52.078;11.650;2023-07-13T01:22:50;1.20;;;1.10;;
14611;SDS011;7392;52.078;11.650;2023-07-13T01:25:18;1.30;;;1.20;;
14611;SDS011;7392;52.078;11.650;2023-07-13T01:27:47;1.40;;;1.10;;
14611;SDS011;7392;52.078;11.650;2023-07-13T01:30:15;1.30;;;1.20;;
14611;SDS011;7392;52.078;11.650;2023-07-13T01:32:43;1.33;;;1.23;;
14611;SDS011;7392;52.078;11.650;2023-07-13T01:35:10;1.43;;;1.20;;
14611;SDS011;7392;52.078;11.650;2023-07-13T01:37:39;1.37;;;1.27;;
14611;SDS011;7392;52.078;11.650;2023-07-13T01:40:09;1.80;;;1.50;;
14611;SDS011;7392;52.078;11.650;2023-07-13T01:42:37;0.90;;;0.90;;
14611;SDS011;7392;52.078;11.650;2023-07-13T01:45:05;1.10;;;1.00;;
14611;SDS011;7392;52.078;11.650;2023-07-13T01:47:33;1.17;;;1.00;;
14611;SDS011;7392;52.078;11.650;2023-07-13T01:50:01;1.20;;;1.10;;
14611;SDS011;7392;52.078;11.650;2023-07-13T01:52:29;1.30;;;1.20;;
14611;SDS011;7392;52.078;11.650;2023-07-13T01:54:57;1.50;;;1.17;;
14611;SDS011;7392;52.078;11.650;2023-07-13T01:57:26;1.37;;;1.27;;
14611;SDS011;7392;52.078;11.650;2023-07-13T01:59:54;1.23;;;1.07;;
14611;SDS011;7392;52.078;11.650;2023-07-13T02:02:21;2.07;;;1.23;;
14611;SDS011;7392;52.078;11.650;2023-07-13T02:04:49;1.63;;;1.00;;
14611;SDS011;7392;52.078;11.650;2023-07-13T02:07:17;2.57;;;1.03;;
14611;SDS011;7392;52.078;11.650;2023-07-13T02:09:45;1.00;;;1.00;;
14611;SDS011;7392;52.078;11.650;2023-07-13T02:12:13;1.13;;;1.03;;
14611;SDS011;7392;52.078;11.650;2023-07-13T02:14:42;1.27;;;0.90;;
14611;SDS011;7392;52.078;11.650;2023-07-13T02:17:10;1.00;;;0.90;;
14611;SDS011;7392;52.078;11.650;2023-07-13T02:19:38;1.53;;;1.20;;
14611;SDS011;7392;52.078;11.650;2023-07-13T02:22:06;1.20;;;1.10;;
14611;SDS011;7392;52.078;11.650;2023-07-13T02:24:34;1.43;;;1.23;;
14611;SDS011;7392;52.078;11.650;2023-07-13T02:27:01;1.03;;;1.00;;
14611;SDS011;7392;52.078;11.650;2023-07-13T02:29:29;1.40;;;1.17;;
14611;SDS011;7392;52.078;11.650;2023-07-13T02:31:58;1.60;;;1.30;;
14611;SDS011;7392;52.078;11.650;2023-07-13T02:34:26;1.00;;;0.90;;
14611;SDS011;7392;52.078;11.650;2023-07-13T02:36:58;1.10;;;1.00;;
14611;SDS011;7392;52.078;11.650;2023-07-13T02:39:26;0.83;;;0.83;;
14611;SDS011;7392;52.078;11.650;2023-07-13T02:41:53;0.80;;;0.80;;
14611;SDS011;7392;52.078;11.650;2023-07-13T02:44:21;1.20;;;1.00;;
14611;SDS011;7392;52.078;11.650;2023-07-13T02:46:49;1.00;;;1.00;;
14611;SDS011;7392;52.078;11.650;2023-07-13T02:49:18;2.27;;;0.97;;
14611;SDS011;7392;52.078;11.650;2023-07-13T02:51:46;1.80;;;1.10;;
14611;SDS011;7392;52.078;11.650;2023-07-13T02:54:14;1.10;;;1.00;;
14611;SDS011;7392;52.078;11.650;2023-07-13T02:56:42;1.10;;;1.00;;
14611;SDS011;7392;52.078;11.650;2023-07-13T02:59:10;1.10;;;0.90;;
14611;SDS011;7392;52.078;11.650;2023-07-13T03:01:38;1.67;;;1.23;;
14611;SDS011;7392;52.078;11.650;2023-07-13T03:04:06;1.63;;;1.23;;
14611;SDS011;7392;52.078;11.650;2023-07-13T03:06:35;1.50;;;1.20;;
14611;SDS011;7392;52.078;11.650;2023-07-13T03:09:03;1.77;;;1.20;;
14611;SDS011;7392;52.078;11.650;2023-07-13T03:11:34;1.77;;;1.27;;
14611;SDS011;7392;52.078;11.650;2023-07-13T03:14:11;1.10;;;1.00;;
14611;SDS011;7392;52.078;11.650;2023-07-13T03:16:39;1.23;;;1.10;;
14611;SDS011;7392;52.078;11.650;2023-07-13T03:19:07;1.10;;;1.00;;
14611;SDS011;7392;52.078;11.650;2023-07-13T03:21:37;0.90;;;0.90;;
14611;SDS011;7392;52.078;11.650;2023-07-13T03:24:05;1.60;;;1.40;;
14611;SDS011;7392;52.078;11.650;2023-07-13T03:26:33;1.50;;;1.40;;
14611;SDS011;7392;52.078;11.650;2023-07-13T03:29:01;1.40;;;1.30;;
14611;SDS011;7392;52.078;11.650;2023-07-13T03:31:30;1.97;;;1.50;;
14611;SDS011;7392;52.078;11.650;2023-07-13T03:34:00;2.00;;;1.47;;
14611;SDS011;7392;52.078;11.650;2023-07-13T03:36:30;1.93;;;1.30;;
14611;SDS011;7392;52.078;11.650;2023-07-13T03:39:04;1.43;;;1.33;;
14611;SDS011;7392;52.078;11.650;2023-07-13T03:41:42;1.50;;;1.30;;
14611;SDS011;7392;52.078;11.650;2023-07-13T03:44:11;1.90;;;1.40;;
14611;SDS011;7392;52.078;11.650;2023-07-13T03:46:39;2.07;;;1.47;;
14611;SDS011;7392;52.078;11.650;2023-07-13T03:49:07;1.77;;;1.50;;
14611;SDS011;7392;52.078;11.650;2023-07-13T03:51:35;3.17;;;1.80;;
14611;SDS011;7392;52.078;11.650;2023-07-13T03:54:05;1.57;;;1.47;;
14611;SDS011;7392;52.078;11.650;2023-07-13T03:56:33;1.73;;;1.60;;
14611;SDS011;7392;52.078;11.650;2023-07-13T03:59:03;1.63;;;1.30;;
14611;SDS011;7392;52.078;11.650;2023-07-13T04:01:30;2.30;;;1.70;;
14611;SDS011;7392;52.078;11.650;2023-07-13T04:03:58;1.67;;;1.40;;
14611;SDS011;7392;52.078;11.650;2023-07-13T04:06:30;2.23;;;1.60;;
14611;SDS011;7392;52.078;11.650;2023-07-13T04:08:59;2.33;;;1.50;;
14611;SDS011;7392;52.078;11.650;2023-07-13T04:11:30;2.63;;;1.90;;
14611;SDS011;7392;52.078;11.650;2023-07-13T04:13:59;1.97;;;1.73;;
14611;SDS011;7392;52.078;11.650;2023-07-13T04:16:27;1.97;;;1.70;;
14611;SDS011;7392;52.078;11.650;2023-07-13T04:18:55;2.10;;;1.67;;
14611;SDS011;7392;52.078;11.650;2023-07-13T04:21:27;3.03;;;1.87;;
14611;SDS011;7392;52.078;11.650;2023-07-13T04:23:55;1.77;;;1.67;;
14611;SDS011;7392;52.078;11.650;2023-07-13T04:26:24;2.00;;;1.57;;
14611;SDS011;7392;52.078;11.650;2023-07-13T04:28:53;1.50;;;1.40;;
14611;SDS011;7392;52.078;11.650;2023-07-13T04:31:20;1.40;;;1.30;;
14611;SDS011;7392;52.078;11.650;2023-07-13T04:33:50;1.60;;;1.50;;
14611;SDS011;7392;52.078;11.650;2023-07-13T04:36:19;1.40;;;1.30;;
14611;SDS011;7392;52.078;11.650;2023-07-13T04:38:47;1.50;;;1.40;;
14611;SDS011;7392;52.078;11.650;2023-07-13T04:41:15;2.10;;;1.50;;
14611;SDS011;7392;52.078;11.650;2023-07-13T04:43:42;2.43;;;1.40;;
14611;SDS011;7392;52.078;11.650;2023-07-13T04:46:12;2.00;;;1.67;;
14611;SDS011;7392;52.078;11.650;2023-07-13T04:48:41;2.23;;;1.70;;
14611;SDS011;7392;52.078;11.650;2023-07-13T04:51:09;2.00;;;1.67;;
14611;SDS011;7392;52.078;11.650;2023-07-13T04:53:37;2.13;;;1.83;;
14611;SDS011;7392;52.078;11.650;2023-07-13T04:56:04;1.87;;;1.77;;
14611;SDS011;7392;52.078;11.650;2023-07-13T04:58:32;2.00;;;1.80;;
14611;SDS011;7392;52.078;11.650;2023-07-13T05:01:01;1.60;;;1.50;;
14611;SDS011;7392;52.078;11.650;2023-07-13T05:03:31;2.40;;;1.93;;
14611;SDS011;7392;52.078;11.650;2023-07-13T05:06:00;1.50;;;1.40;;
14611;SDS011;7392;52.078;11.650;2023-07-13T05:08:30;2.90;;;1.53;;
14611;SDS011;7392;52.078;11.650;2023-07-13T05:10:59;1.80;;;1.50;;
14611;SDS011;7392;52.078;11.650;2023-07-13T05:13:27;1.37;;;1.20;;
14611;SDS011;7392;52.078;11.650;2023-07-13T05:15:56;1.93;;;1.50;;
14611;SDS011;7392;52.078;11.650;2023-07-13T05:18:26;1.30;;;1.20;;
14611;SDS011;7392;52.078;11.650;2023-07-13T05:20:58;1.70;;;1.37;;
14611;SDS011;7392;52.078;11.650;2023-07-13T05:23:26;2.03;;;1.23;;
14611;SDS011;7392;52.078;11.650;2023-07-13T05:25:54;1.33;;;1.23;;
14611;SDS011;7392;52.078;11.650;2023-07-13T05:28:22;1.73;;;1.40;;
14611;SDS011;7392;52.078;11.650;2023-07-13T05:30:50;1.50;;;1.20;;
14611;SDS011;7392;52.078;11.650;2023-07-13T05:33:18;1.30;;;1.20;;
14611;SDS011;7392;52.078;11.650;2023-07-13T05:35:46;1.57;;;1.43;;
14611;SDS011;7392;52.078;11.650;2023-07-13T05:38:15;1.30;;;1.20;;
14611;SDS011;7392;52.078;11.650;2023-07-13T05:40:43;1.67;;;1.17;;
14611;SDS011;7392;52.078;11.650;2023-07-13T05:43:11;1.47;;;1.20;;
14611;SDS011;7392;52.078;11.650;2023-07-13T05:45:39;1.23;;;1.10;;
14611;SDS011;7392;52.078;11.650;2023-07-13T05:48:07;1.43;;;1.33;;
14611;SDS011;7392;52.078;11.650;2023-07-13T05:50:35;1.90;;;1.40;;
14611;SDS011;7392;52.078;11.650;2023-07-13T05:53:03;1.27;;;1.10;;
14611;SDS011;7392;52.078;11.650;2023-07-13T05:55:32;1.10;;;1.00;;
14611;SDS011;7392;52.078;11.650;2023-07-13T05:58:00;1.73;;;1.13;;
14611;SDS011;7392;52.078;11.650;2023-07-13T06:00:28;1.87;;;1.43;;
14611;SDS011;7392;52.078;11.650;2023-07-13T06:02:56;1.57;;;1.20;;
14611;SDS011;7392;52.078;11.650;2023-07-13T06:05:25;2.60;;;1.47;;
14611;SDS011;7392;52.078;11.650;2023-07-13T06:07:53;2.50;;;1.40;;
14611;SDS011;7392;52.078;11.650;2023-07-13T06:10:21;3.10;;;1.53;;
14611;SDS011;7392;52.078;11.650;2023-07-13T06:12:50;2.67;;;1.43;;
14611;SDS011;7392;52.078;11.650;2023-07-13T06:15:18;2.57;;;1.53;;
14611;SDS011;7392;52.078;11.650;2023-07-13T06:17:45;1.80;;;1.30;;
14611;SDS011;7392;52.078;11.650;2023-07-13T06:20:13;2.37;;;1.50;;
14611;SDS011;7392;52.078;11.650;2023-07-13T06:22:41;2.80;;;1.63;;
14611;SDS011;7392;52.078;11.650;2023-07-13T06:25:09;2.93;;;1.53;;
14611;SDS011;7392;52.078;11.650;2023-07-13T06:27:37;2.50;;;1.40;;
14611;SDS011;7392;52.078;11.650;2023-07-13T06:30:06;1.70;;;1.40;;
14611;SDS011;7392;52.078;11.650;2023-07-13T06:32:35;3.73;;;1.50;;
14611;SDS011;7392;52.078;11.650;2023-07-13T06:35:07;2.23;;;1.43;;
14611;SDS011;7392;52.078;11.650;2023-07-13T06:37:39;2.23;;;1.43;;
14611;SDS011;7392;52.078;11.650;2023-07-13T06:40:07;2.10;;;1.50;;
14611;SDS011;7392;52.078;11.650;2023-07-13T06:42:35;1.90;;;1.40;;
14611;SDS011;7392;52.078;11.650;2023-07-13T06:45:05;2.13;;;1.30;;
14611;SDS011;7392;52.078;11.650;2023-07-13T06:47:35;2.17;;;1.33;;
14611;SDS011;7392;52.078;11.650;2023-07-13T06:50:02;2.10;;;1.33;;
14611;SDS011;7392;52.078;11.650;2023-07-13T06:52:30;1.83;;;1.40;;
14611;SDS011;7392;52.078;11.650;2023-07-13T06:54:58;3.37;;;1.63;;
14611;SDS011;7392;52.078;11.650;2023-07-13T06:57:26;3.27;;;1.30;;
14611;SDS011;7392;52.078;11.650;2023-07-13T06:59:54;3.80;;;1.60;;
14611;SDS011;7392;52.078;11.650;2023-07-13T07:02:23;2.00;;;1.60;;
14611;SDS011;7392;52.078;11.650;2023-07-13T07:04:51;2.97;;;1.63;;
14611;SDS011;7392;52.078;11.650;2023-07-13T07:07:23;4.43;;;1.60;;
14611;SDS011;7392;52.078;11.650;2023-07-13T07:09:51;1.90;;;1.57;;
14611;SDS011;7392;52.078;11.650;2023-07-13T07:12:18;2.03;;;1.33;;
14611;SDS011;7392;52.078;11.650;2023-07-13T07:14:46;3.30;;;1.80;;
14611;SDS011;7392;52.078;11.650;2023-07-13T07:17:14;1.40;;;1.30;;
14611;SDS011;7392;52.078;11.650;2023-07-13T07:19:43;2.57;;;1.50;;
14611;SDS011;7392;52.078;11.650;2023-07-13T07:22:11;2.10;;;1.30;;
14611;SDS011;7392;52.078;11.650;2023-07-13T07:24:38;1.80;;;1.40;;
14611;SDS011;7392;52.078;11.650;2023-07-13T07:27:06;3.20;;;1.60;;
14611;SDS011;7392;52.078;11.650;2023-07-13T07:29:37;1.90;;;1.43;;
14611;SDS011;7392;52.078;11.650;2023-07-13T07:32:10;1.80;;;1.20;;
14611;SDS011;7392;52.078;11.650;2023-07-13T07:34:59;2.60;;;1.63;;
14611;SDS011;7392;52.078;11.650;2023-07-13T07:37:27;3.27;;;1.43;;
14611;SDS011;7392;52.078;11.650;2023-07-13T07:39:58;2.60;;;1.50;;
14611;SDS011;7392;52.078;11.650;2023-07-13T07:42:28;1.73;;;1.20;;
14611;SDS011;7392;52.078;11.650;2023-07-13T07:44:56;2.97;;;1.73;;
14611;SDS011;7392;52.078;11.650;2023-07-13T07:47:26;3.13;;;1.57;;
14611;SDS011;7392;52.078;11.650;2023-07-13T07:49:54;2.43;;;1.40;;
14611;SDS011;7392;52.078;11.650;2023-07-13T07:52:23;1.90;;;1.30;;
14611;SDS011;7392;52.078;11.650;2023-07-13T07:54:51;1.50;;;1.17;;
14611;SDS011;7392;52.078;11.650;2023-07-13T07:57:21;3.77;;;1.70;;
14611;SDS011;7392;52.078;11.650;2023-07-13T07:59:52;2.55;;;1.67;;
14611;SDS011;7392;52.078;11.650;2023-07-13T08:02:23;2.67;;;1.80;;
14611;SDS011;7392;52.078;11.650;2023-07-13T08:04:54;4.07;;;1.73;;
14611;SDS011;7392;52.078;11.650;2023-07-13T08:07:26;3.27;;;1.90;;
14611;SDS011;7392;52.078;11.650;2023-07-13T08:09:54;3.93;;;2.17;;
14611;SDS011;7392;52.078;11.650;2023-07-13T08:12:22;3.47;;;2.20;;
14611;SDS011;7392;52.078;11.650;2023-07-13T08:14:52;3.60;;;2.13;;
14611;SDS011;7392;52.078;11.650;2023-07-13T08:17:23;3.47;;;1.90;;
14611;SDS011;7392;52.078;11.650;2023-07-13T08:19:52;2.43;;;1.87;;
14611;SDS011;7392;52.078;11.650;2023-07-13T08:22:20;3.07;;;1.80;;
14611;SDS011;7392;52.078;11.650;2023-07-13T08:24:49;2.40;;;1.70;;
14611;SDS011;7392;52.078;11.650;2023-07-13T08:27:22;3.65;;;2.10;;
14611;SDS011;7392;52.078;11.650;2023-07-13T08:29:51;4.95;;;2.03;;
14611;SDS011;7392;52.078;11.650;2023-07-13T08:32:19;4.77;;;2.00;;
14611;SDS011;7392;52.078;11.650;2023-07-13T08:34:48;4.83;;;1.97;;
14611;SDS011;7392;52.078;11.650;2023-07-13T08:37:16;5.07;;;2.00;;
14611;SDS011;7392;52.078;11.650;2023-07-13T08:39:44;2.95;;;1.75;;
14611;SDS011;7392;52.078;11.650;2023-07-13T08:42:14;3.65;;;1.77;;
14611;SDS011;7392;52.078;11.650;2023-07-13T08:44:49;2.78;;;1.65;;
14611;SDS011;7392;52.078;11.650;2023-07-13T08:47:25;3.10;;;1.75;;
14611;SDS011;7392;52.078;11.650;2023-07-13T08:49:56;2.80;;;1.60;;
14611;SDS011;7392;52.078;11.650;2023-07-13T08:52:26;4.00;;;1.60;;
14611;SDS011;7392;52.078;11.650;2023-07-13T08:55:00;2.60;;;1.30;;
14611;SDS011;7392;52.078;11.650;2023-07-13T08:57:45;4.15;;;1.80;;
14611;SDS011;7392;52.078;11.650;2023-07-13T09:00:15;3.80;;;1.45;;
14611;SDS011;7392;52.078;11.650;2023-07-13T09:02:45;4.47;;;1.70;;
14611;SDS011;7392;52.078;11.650;2023-07-13T09:05:18;2.83;;;1.63;;
14611;SDS011;7392;52.078;11.650;2023-07-13T09:07:58;2.17;;;1.30;;
14611;SDS011;7392;52.078;11.650;2023-07-13T09:10:32;2.22;;;1.27;;
14611;SDS011;7392;52.078;11.650;2023-07-13T09:13:13;2.85;;;1.33;;
14611;SDS011;7392;52.078;11.650;2023-07-13T09:15:50;1.73;;;1.30;;
14611;SDS011;7392;52.078;11.650;2023-07-13T09:18:20;2.53;;;1.40;;
14611;SDS011;7392;52.078;11.650;2023-07-13T09:20:54;3.55;;;1.58;;
14611;SDS011;7392;52.078;11.650;2023-07-13T09:23:27;2.97;;;1.33;;
14611;SDS011;7392;52.078;11.650;2023-07-13T09:25:59;3.63;;;1.40;;
14611;SDS011;7392;52.078;11.650;2023-07-13T09:28:33;2.28;;;1.35;;
14611;SDS011;7392;52.078;11.650;2023-07-13T09:31:06;2.63;;;1.42;;
14611;SDS011;7392;52.078;11.650;2023-07-13T09:33:40;1.75;;;1.13;;
14611;SDS011;7392;52.078;11.650;2023-07-13T09:36:17;2.38;;;1.30;;
14611;SDS011;7392;52.078;11.650;2023-07-13T09:38:46;2.92;;;1.15;;
14611;SDS011;7392;52.078;11.650;2023-07-13T09:41:18;1.77;;;1.10;;
14611;SDS011;7392;52.078;11.650;2023-07-13T09:44:11;1.88;;;1.10;;
14611;SDS011;7392;52.078;11.650;2023-07-13T09:46:43;3.13;;;1.30;;
14611;SDS011;7392;52.078;11.650;2023-07-13T09:49:13;2.72;;;1.20;;
14611;SDS011;7392;52.078;11.650;2023-07-13T09:51:41;3.15;;;1.20;;
14611;SDS011;7392;52.078;11.650;2023-07-13T09:54:17;1.92;;;1.10;;
14611;SDS011;7392;52.078;11.650;2023-07-13T09:56:46;2.08;;;1.20;;
14611;SDS011;7392;52.078;11.650;2023-07-13T09:59:20;2.33;;;1.17;;
14611;SDS011;7392;52.078;11.650;2023-07-13T10:01:49;2.22;;;1.10;;
14611;SDS011;7392;52.078;11.650;2023-07-13T10:04:18;2.70;;;1.30;;
14611;SDS011;7392;52.078;11.650;2023-07-13T10:06:47;1.88;;;1.30;;
14611;SDS011;7392;52.078;11.650;2023-07-13T10:09:19;4.75;;;1.58;;
14611;SDS011;7392;52.078;11.650;2023-07-13T10:11:47;2.97;;;1.40;;
14611;SDS011;7392;52.078;11.650;2023-07-13T10:14:20;2.45;;;1.42;;
14611;SDS011;7392;52.078;11.650;2023-07-13T10:16:52;4.15;;;1.25;;
14611;SDS011;7392;52.078;11.650;2023-07-13T10:19:29;2.08;;;1.20;;
14611;SDS011;7392;52.078;11.650;2023-07-13T10:22:00;2.85;;;1.33;;
14611;SDS011;7392;52.078;11.650;2023-07-13T10:24:30;2.30;;;1.08;;
14611;SDS011;7392;52.078;11.650;2023-07-13T10:27:00;3.15;;;1.42;;
14611;SDS011;7392;52.078;11.650;2023-07-13T10:29:34;3.67;;;1.30;;
14611;SDS011;7392;52.078;11.650;2023-07-13T10:32:07;3.08;;;1.27;;
14611;SDS011;7392;52.078;11.650;2023-07-13T10:34:37;1.65;;;1.02;;
14611;SDS011;7392;52.078;11.650;2023-07-13T10:37:05;1.88;;;1.10;;
14611;SDS011;7392;52.078;11.650;2023-07-13T10:39:34;3.38;;;1.17;;
14611;SDS011;7392;52.078;11.650;2023-07-13T10:42:03;2.42;;;1.48;;
14611;SDS011;7392;52.078;11.650;2023-07-13T10:44:35;2.42;;;1.27;;
14611;SDS011;7392;52.078;11.650;2023-07-13T10:47:03;2.42;;;1.17;;
14611;SDS011;7392;52.078;11.650;2023-07-13T10:49:35;3.85;;;1.23;;
14611;SDS011;7392;52.078;11.650;2023-07-13T10:52:04;1.42;;;0.80;;
14611;SDS011;7392;52.078;11.650;2023-07-13T10:54:34;2.90;;;1.17;;
14611;SDS011;7392;52.078;11.650;2023-07-13T10:57:07;1.83;;;1.17;;
14611;SDS011;7392;52.078;11.650;2023-07-13T10:59:45;1.45;;;0.90;;
14611;SDS011;7392;52.078;11.650;2023-07-13T11:02:17;6.10;;;1.33;;
14611;SDS011;7392;52.078;11.650;2023-07-13T11:04:53;2.80;;;1.27;;
14611;SDS011;7392;52.078;11.650;2023-07-13T11:07:23;4.35;;;1.55;;
14611;SDS011;7392;52.078;11.650;2023-07-13T11:09:52;1.80;;;1.05;;
14611;SDS011;7392;52.078;11.650;2023-07-13T11:12:28;2.83;;;1.30;;
14611;SDS011;7392;52.078;11.650;2023-07-13T11:15:26;2.75;;;1.10;;
14611;SDS011;7392;52.078;11.650;2023-07-13T11:17:57;2.40;;;1.30;;
14611;SDS011;7392;52.078;11.650;2023-07-13T11:20:32;1.20;;;0.80;;
14611;SDS011;7392;52.078;11.650;2023-07-13T11:23:18;1.33;;;0.93;;
14611;SDS011;7392;52.078;11.650;2023-07-13T11:25:48;2.67;;;1.20;;
14611;SDS011;7392;52.078;11.650;2023-07-13T11:28:21;2.50;;;1.08;;
14611;SDS011;7392;52.078;11.650;2023-07-13T11:31:00;2.45;;;0.90;;
14611;SDS011;7392;52.078;11.650;2023-07-13T11:33:48;2.30;;;1.10;;
14611;SDS011;7392;52.078;11.650;2023-07-13T11:36:19;2.38;;;0.90;;
14611;SDS011;7392;52.078;11.650;2023-07-13T11:38:51;1.48;;;1.02;;
14611;SDS011;7392;52.078;11.650;2023-07-13T11:41:26;1.15;;;0.70;;
14611;SDS011;7392;52.078;11.650;2023-07-13T11:44:02;1.52;;;1.00;;
14611;SDS011;7392;52.078;11.650;2023-07-13T11:46:36;2.33;;;0.90;;
14611;SDS011;7392;52.078;11.650;2023-07-13T11:49:04;1.65;;;1.10;;
14611;SDS011;7392;52.078;11.650;2023-07-13T11:51:34;1.52;;;1.10;;
14611;SDS011;7392;52.078;11.650;2023-07-13T11:54:04;1.70;;;0.95;;
14611;SDS011;7392;52.078;11.650;2023-07-13T11:56:34;3.58;;;1.13;;
14611;SDS011;7392;52.078;11.650;2023-07-13T11:59:04;1.92;;;1.10;;
14611;SDS011;7392;52.078;11.650;2023-07-13T12:01:36;2.55;;;1.33;;
14611;SDS011;7392;52.078;11.650;2023-07-13T12:04:12;4.47;;;1.17;;
14611;SDS011;7392;52.078;11.650;2023-07-13T12:06:54;2.88;;;1.10;;
14611;SDS011;7392;52.078;11.650;2023-07-13T12:09:22;0.93;;;0.82;;
14611;SDS011;7392;52.078;11.650;2023-07-13T12:11:53;1.92;;;1.10;;
14611;SDS011;7392;52.078;11.650;2023-07-13T12:14:20;3.50;;;1.20;;
14611;SDS011;7392;52.078;11.650;2023-07-13T12:16:52;0.98;;;0.90;;
14611;SDS011;7392;52.078;11.650;2023-07-13T12:19:21;3.72;;;1.02;;
14611;SDS011;7392;52.078;11.650;2023-07-13T12:21:53;4.43;;;1.35;;
14611;SDS011;7392;52.078;11.650;2023-07-13T12:24:22;1.58;;;1.00;;
14611;SDS011;7392;52.078;11.650;2023-07-13T12:26:51;1.58;;;0.93;;
14611;SDS011;7392;52.078;11.650;2023-07-13T12:29:20;1.10;;;0.73;;
14611;SDS011;7392;52.078;11.650;2023-07-13T12:31:48;1.02;;;0.80;;
14611;SDS011;7392;52.078;11.650;2023-07-13T12:34:20;1.75;;;0.90;;
14611;SDS011;7392;52.078;11.650;2023-07-13T12:36:51;0.82;;;0.60;;
14611;SDS011;7392;52.078;11.650;2023-07-13T12:39:22;2.55;;;1.08;;
14611;SDS011;7392;52.078;11.650;2023-07-13T12:41:52;2.00;;;1.08;;
14611;SDS011;7392;52.078;11.650;2023-07-13T12:44:23;4.53;;;1.20;;
14611;SDS011;7392;52.078;11.650;2023-07-13T12:46:56;2.47;;;1.10;;
14611;SDS011;7392;52.078;11.650;2023-07-13T12:49:28;1.70;;;0.93;;
14611;SDS011;7392;52.078;11.650;2023-07-13T12:51:59;4.15;;;1.23;;
14611;SDS011;7392;52.078;11.650;2023-07-13T12:54:30;2.03;;;1.10;;
14611;SDS011;7392;52.078;11.650;2023-07-13T12:56:59;2.58;;;1.25;;
14611;SDS011;7392;52.078;11.650;2023-07-13T12:59:30;2.25;;;1.10;;
14611;SDS011;7392;52.078;11.650;2023-07-13T13:02:05;2.80;;;1.10;;
14611;SDS011;7392;52.078;11.650;2023-07-13T13:04:51;1.48;;;1.00;;
14611;SDS011;7392;52.078;11.650;2023-07-13T13:07:21;2.15;;;0.82;;
14611;SDS011;7392;52.078;11.650;2023-07-13T13:09:49;1.65;;;0.90;;
14611;SDS011;7392;52.078;11.650;2023-07-13T13:12:17;1.27;;;0.93;;
14611;SDS011;7392;52.078;11.650;2023-07-13T13:14:44;1.50;;;0.93;;
14611;SDS011;7392;52.078;11.650;2023-07-13T13:17:17;1.23;;;1.00;;
14611;SDS011;7392;52.078;11.650;2023-07-13T13:19:47;1.30;;;0.90;;
14611;SDS011;7392;52.078;11.650;2023-07-13T13:22:17;1.10;;;0.80;;
14611;SDS011;7392;52.078;11.650;2023-07-13T13:24:44;1.88;;;1.00;;
14611;SDS011;7392;52.078;11.650;2023-07-13T13:27:14;1.40;;;1.00;;
14611;SDS011;7392;52.078;11.650;2023-07-13T13:29:44;2.42;;;1.08;;
14611;SDS011;7392;52.078;11.650;2023-07-13T13:32:13;1.00;;;0.90;;
14611;SDS011;7392;52.078;11.650;2023-07-13T13:34:42;2.88;;;1.20;;
14611;SDS011;7392;52.078;11.650;2023-07-13T13:37:15;2.33;;;1.10;;
14611;SDS011;7392;52.078;11.650;2023-07-13T13:39:46;3.58;;;1.10;;
14611;SDS011;7392;52.078;11.650;2023-07-13T13:42:32;1.27;;;1.10;;
14611;SDS011;7392;52.078;11.650;2023-07-13T13:45:00;1.58;;;1.10;;
14611;SDS011;7392;52.078;11.650;2023-07-13T13:47:29;1.52;;;1.00;;
14611;SDS011;7392;52.078;11.650;2023-07-13T13:49:59;1.00;;;0.90;;
14611;SDS011;7392;52.078;11.650;2023-07-13T13:52:28;1.65;;;1.00;;
14611;SDS011;7392;52.078;11.650;2023-07-13T13:54:56;1.55;;;0.90;;
14611;SDS011;7392;52.078;11.650;2023-07-13T13:57:24;1.42;;;1.15;;
14611;SDS011;7392;52.078;11.650;2023-07-13T13:59:52;1.75;;;1.20;;
14611;SDS011;7392;52.078;11.650;2023-07-13T14:02:21;1.77;;;1.00;;
14611;SDS011;7392;52.078;11.650;2023-07-13T14:04:52;3.55;;;1.27;;
14611;SDS011;7392;52.078;11.650;2023-07-13T14:07:22;4.28;;;1.23;;
14611;SDS011;7392;52.078;11.650;2023-07-13T14:09:52;2.65;;;1.20;;
14611;SDS011;7392;52.078;11.650;2023-07-13T14:12:22;6.43;;;1.10;;
14611;SDS011;7392;52.078;11.650;2023-07-13T14:14:52;2.10;;;1.10;;
14611;SDS011;7392;52.078;11.650;2023-07-13T14:17:20;5.05;;;1.80;;
14611;SDS011;7392;52.078;11.650;2023-07-13T14:19:52;5.95;;;1.38;;
14611;SDS011;7392;52.078;11.650;2023-07-13T14:22:23;2.05;;;1.33;;
14611;SDS011;7392;52.078;11.650;2023-07-13T14:24:53;1.63;;;1.13;;
14611;SDS011;7392;52.078;11.650;2023-07-13T14:27:23;1.58;;;1.10;;
14611;SDS011;7392;52.078;11.650;2023-07-13T14:29:52;2.95;;;1.40;;
14611;SDS011;7392;52.078;11.650;2023-07-13T14:32:20;1.92;;;1.20;;
14611;SDS011;7392;52.078;11.650;2023-07-13T14:34:48;2.67;;;1.10;;
14611;SDS011;7392;52.078;11.650;2023-07-13T14:37:20;2.47;;;1.20;;
14611;SDS011;7392;52.078;11.650;2023-07-13T14:39:48;2.55;;;1.00;;
14611;SDS011;7392;52.078;11.650;2023-07-13T14:42:22;0.90;;;0.77;;
14611;SDS011;7392;52.078;11.650;2023-07-13T14:44:50;1.90;;;1.17;;
14611;SDS011;7392;52.078;11.650;2023-07-13T14:47:18;1.83;;;1.20;;
14611;SDS011;7392;52.078;11.650;2023-07-13T14:49:46;1.38;;;1.00;;
14611;SDS011;7392;52.078;11.650;2023-07-13T14:52:15;1.65;;;1.00;;
14611;SDS011;7392;52.078;11.650;2023-07-13T14:54:46;1.85;;;1.27;;
14611;SDS011;7392;52.078;11.650;2023-07-13T14:57:14;1.38;;;1.20;;
14611;SDS011;7392;52.078;11.650;2023-07-13T14:59:45;2.00;;;1.27;;
14611;SDS011;7392;52.078;11.650;2023-07-13T15:02:13;2.20;;;1.02;;
14611;SDS011;7392;52.078;11.650;2023-07-13T15:04:44;0.90;;;0.90;;